createdAt,value
2018-02-13T00:18:24.989Z,0.5
2018-02-13T00:34:57.752Z,0.5
2018-02-13T00:51:30.722Z,0.5
2018-02-13T01:08:03.348Z,0.5
2018-02-13T01:24:36.204Z,0.5
2018-02-13T01:41:09.007Z,0.5
2018-02-13T01:57:42.064Z,0.5
2018-02-13T02:14:14.746Z,0.2
2018-02-13T02:30:47.792Z,0.2
2018-02-13T02:47:20.032Z,0.2
2018-02-13T03:03:52.662Z,0.2
2018-02-13T03:20:25.536Z,0.2
2018-02-13T03:36:58.958Z,0.5
2018-02-13T03:53:31.329Z,0.8
2018-02-13T04:10:04.467Z,0.5
2018-02-13T04:26:37.373Z,0.5
2018-02-13T04:43:10.783Z,0.5
2018-02-13T04:59:43.182Z,0.2
2018-02-13T05:16:16.068Z,-0.2
2018-02-13T05:32:48.518Z,-0.2
2018-02-13T05:49:21.162Z,-0.2
2018-02-13T06:05:53.846Z,0.2
2018-02-13T06:22:26.587Z,0.2
2018-02-13T06:38:59.686Z,-0.2
2018-02-13T06:55:32.375Z,-0.2
2018-02-13T07:12:04.975Z,-0.2
2018-02-13T07:28:36.612Z,-0.2
2018-02-13T07:45:09.904Z,0.2
2018-02-13T08:01:42.426Z,0.5
2018-02-13T08:18:15.370Z,0.8
2018-02-13T08:34:49.136Z,1.1
2018-02-13T09:07:56.654Z,2.1
2018-02-13T09:24:30.568Z,2.7
2018-02-13T09:41:05.735Z,3.0
2018-02-13T09:54:21.537Z,3.7
2018-02-13T10:10:56.628Z,4.0
2018-02-13T10:27:31.861Z,4.3
2018-02-13T10:44:07.441Z,4.6
2018-02-13T11:00:43.595Z,5.0
2018-02-13T11:17:18.701Z,5.3
2018-02-13T11:33:55.110Z,5.6
2018-02-13T11:50:31.572Z,5.6
2018-02-13T12:07:07.345Z,5.6
2018-02-13T12:20:24.504Z,5.9
2018-02-13T12:37:02.047Z,5.9
2018-02-13T12:53:38.147Z,6.2
2018-02-13T13:10:14.764Z,6.2
2018-02-13T13:26:51.751Z,6.2
2018-02-13T13:43:28.114Z,6.2
2018-02-13T14:00:06.468Z,6.2
2018-02-13T14:16:41.869Z,6.2
2018-02-13T14:29:59.275Z,5.6
2018-02-13T14:46:35.333Z,5.6
2018-02-13T15:03:13.941Z,5.6
2018-02-13T15:19:48.458Z,5.6
2018-02-13T15:33:04.182Z,5.0
2018-02-13T15:49:41.714Z,4.6
2018-02-13T16:06:16.282Z,4.3
2018-02-13T16:22:51.995Z,4.0
2018-02-13T16:39:27.563Z,3.7
2018-02-13T16:56:03.444Z,3.4
2018-02-13T17:12:36.918Z,3.0
2018-02-13T17:29:11.920Z,3.0
2018-02-13T17:45:45.883Z,2.7
2018-02-13T18:02:20.853Z,2.4
2018-02-13T18:18:56.049Z,2.4
2018-02-13T18:35:29.046Z,2.1
2018-02-13T18:52:03.075Z,2.1
2018-02-13T19:08:37.211Z,1.8
2018-02-13T19:25:11.257Z,1.8
2018-02-13T19:58:19.461Z,1.4
2018-02-13T20:14:52.341Z,1.1
2018-02-13T20:31:25.966Z,1.1
2018-02-13T20:47:58.880Z,0.8
2018-02-13T21:04:31.803Z,0.8
2018-02-13T21:21:04.847Z,0.5
2018-02-13T21:37:37.649Z,0.5
2018-02-13T22:10:42.821Z,0.5
2018-02-13T22:27:16.029Z,0.2
2018-02-13T22:43:48.671Z,-0.2
2018-02-13T23:16:53.104Z,-0.5
2018-02-13T23:33:25.942Z,-0.5
2018-02-13T23:49:57.991Z,-0.8
